sensor_id;sensor_type;location;lat;lon;timestamp;P1;durP1;ratioP1;P2;durP2;ratioP2
3293;SDS011;1659;51.470;6.770;2022-08-19T00:00:16;12.50;;;10.10;;
3293;SDS011;1659;51.470;6.770;2022-08-19T00:02:44;10.47;;;9.37;;
3293;SDS011;1659;51.470;6.770;2022-08-19T00:05:12;13.77;;;10.37;;
3293;SDS011;1659;51.470;6.770;2022-08-19T00:07:40;15.60;;;10.20;;
3293;SDS011;1659;51.470;6.770;2022-08-19T00:10:09;15.23;;;10.33;;
3293;SDS011;1659;51.470;6.770;2022-08-19T00:12:37;11.67;;;9.90;;
3293;SDS011;1659;51.470;6.770;2022-08-19T00:15:04;14.47;;;9.97;;
3293;SDS011;1659;51.470;6.770;2022-08-19T00:17:32;14.20;;;9.73;;
3293;SDS011;1659;51.470;6.770;2022-08-19T00:19:58;12.53;;;10.37;;
3293;SDS011;1659;51.470;6.770;2022-08-19T00:22:25;10.53;;;9.17;;
3293;SDS011;1659;51.470;6.770;2022-08-19T00:24:53;12.13;;;9.30;;
3293;SDS011;1659;51.470;6.770;2022-08-19T00:27:21;14.20;;;10.60;;
3293;SDS011;1659;51.470;6.770;2022-08-19T00:29:47;15.77;;;10.93;;
3293;SDS011;1659;51.470;6.770;2022-08-19T00:32:14;15.50;;;11.40;;
3293;SDS011;1659;51.470;6.770;2022-08-19T00:34:40;12.60;;;10.50;;
3293;SDS011;1659;51.470;6.770;2022-08-19T00:37:07;12.57;;;9.80;;
3293;SDS011;1659;51.470;6.770;2022-08-19T00:39:34;12.90;;;9.80;;
3293;SDS011;1659;51.470;6.770;2022-08-19T00:42:00;13.00;;;10.00;;
3293;SDS011;1659;51.470;6.770;2022-08-19T00:44:29;20.40;;;9.70;;
3293;SDS011;1659;51.470;6.770;2022-08-19T00:46:57;10.57;;;9.40;;
3293;SDS011;1659;51.470;6.770;2022-08-19T00:49:27;14.20;;;10.30;;
3293;SDS011;1659;51.470;6.770;2022-08-19T00:51:58;16.97;;;10.07;;
3293;SDS011;1659;51.470;6.770;2022-08-19T00:54:27;18.10;;;9.10;;
3293;SDS011;1659;51.470;6.770;2022-08-19T00:56:56;14.93;;;9.93;;
3293;SDS011;1659;51.470;6.770;2022-08-19T00:59:24;18.00;;;11.10;;
3293;SDS011;1659;51.470;6.770;2022-08-19T01:01:53;12.20;;;9.73;;
3293;SDS011;1659;51.470;6.770;2022-08-19T01:04:19;13.30;;;9.63;;
3293;SDS011;1659;51.470;6.770;2022-08-19T01:06:46;14.67;;;10.13;;
3293;SDS011;1659;51.470;6.770;2022-08-19T01:09:13;15.07;;;10.10;;
3293;SDS011;1659;51.470;6.770;2022-08-19T01:11:43;12.37;;;10.20;;
3293;SDS011;1659;51.470;6.770;2022-08-19T01:14:11;14.57;;;10.33;;
3293;SDS011;1659;51.470;6.770;2022-08-19T01:16:39;16.40;;;10.37;;
3293;SDS011;1659;51.470;6.770;2022-08-19T01:19:12;15.53;;;10.00;;
3293;SDS011;1659;51.470;6.770;2022-08-19T01:21:46;15.10;;;10.10;;
3293;SDS011;1659;51.470;6.770;2022-08-19T01:24:19;21.10;;;12.70;;
3293;SDS011;1659;51.470;6.770;2022-08-19T01:26:47;15.23;;;10.30;;
3293;SDS011;1659;51.470;6.770;2022-08-19T01:29:14;22.53;;;11.67;;
3293;SDS011;1659;51.470;6.770;2022-08-19T01:31:40;18.07;;;10.63;;
3293;SDS011;1659;51.470;6.770;2022-08-19T01:34:07;16.00;;;11.20;;
3293;SDS011;1659;51.470;6.770;2022-08-19T01:36:34;16.43;;;10.57;;
3293;SDS011;1659;51.470;6.770;2022-08-19T01:39:04;10.03;;;9.00;;
3293;SDS011;1659;51.470;6.770;2022-08-19T01:41:35;14.80;;;11.00;;
3293;SDS011;1659;51.470;6.770;2022-08-19T01:44:03;14.97;;;10.03;;
3293;SDS011;1659;51.470;6.770;2022-08-19T01:46:30;15.50;;;10.37;;
3293;SDS011;1659;51.470;6.770;2022-08-19T01:48:58;17.73;;;12.40;;
3293;SDS011;1659;51.470;6.770;2022-08-19T01:51:25;15.30;;;10.83;;
3293;SDS011;1659;51.470;6.770;2022-08-19T01:53:52;18.40;;;10.80;;
3293;SDS011;1659;51.470;6.770;2022-08-19T01:56:19;20.47;;;12.60;;
3293;SDS011;1659;51.470;6.770;2022-08-19T01:58:49;18.67;;;12.43;;
3293;SDS011;1659;51.470;6.770;2022-08-19T02:01:18;14.90;;;11.40;;
3293;SDS011;1659;51.470;6.770;2022-08-19T02:03:45;17.67;;;11.73;;
3293;SDS011;1659;51.470;6.770;2022-08-19T02:06:12;16.27;;;11.97;;
3293;SDS011;1659;51.470;6.770;2022-08-19T02:08:42;16.03;;;11.37;;
3293;SDS011;1659;51.470;6.770;2022-08-19T02:11:17;15.40;;;11.30;;
3293;SDS011;1659;51.470;6.770;2022-08-19T02:13:46;13.20;;;11.77;;
3293;SDS011;1659;51.470;6.770;2022-08-19T02:16:15;16.13;;;11.57;;
3293;SDS011;1659;51.470;6.770;2022-08-19T02:18:42;18.10;;;11.70;;
3293;SDS011;1659;51.470;6.770;2022-08-19T02:21:09;16.80;;;11.80;;
3293;SDS011;1659;51.470;6.770;2022-08-19T02:23:35;15.33;;;11.00;;
3293;SDS011;1659;51.470;6.770;2022-08-19T02:26:02;15.33;;;11.90;;
3293;SDS011;1659;51.470;6.770;2022-08-19T02:28:28;19.63;;;13.20;;
3293;SDS011;1659;51.470;6.770;2022-08-19T02:30:56;17.30;;;12.40;;
3293;SDS011;1659;51.470;6.770;2022-08-19T02:33:25;16.43;;;11.27;;
3293;SDS011;1659;51.470;6.770;2022-08-19T02:35:52;17.20;;;11.83;;
3293;SDS011;1659;51.470;6.770;2022-08-19T02:38:18;14.93;;;11.60;;
3293;SDS011;1659;51.470;6.770;2022-08-19T02:40:50;16.47;;;12.00;;
3293;SDS011;1659;51.470;6.770;2022-08-19T02:43:18;13.63;;;11.13;;
3293;SDS011;1659;51.470;6.770;2022-08-19T02:45:46;15.03;;;11.37;;
3293;SDS011;1659;51.470;6.770;2022-08-19T02:48:15;17.87;;;11.73;;
3293;SDS011;1659;51.470;6.770;2022-08-19T02:50:43;19.17;;;12.73;;
3293;SDS011;1659;51.470;6.770;2022-08-19T02:53:10;15.40;;;11.70;;
3293;SDS011;1659;51.470;6.770;2022-08-19T02:55:42;17.27;;;12.23;;
3293;SDS011;1659;51.470;6.770;2022-08-19T02:58:09;13.97;;;11.67;;
3293;SDS011;1659;51.470;6.770;2022-08-19T03:00:40;21.57;;;11.87;;
3293;SDS011;1659;51.470;6.770;2022-08-19T03:03:08;14.93;;;11.47;;
3293;SDS011;1659;51.470;6.770;2022-08-19T03:05:36;14.53;;;11.60;;
3293;SDS011;1659;51.470;6.770;2022-08-19T03:08:03;20.33;;;12.43;;
3293;SDS011;1659;51.470;6.770;2022-08-19T03:10:30;17.77;;;12.70;;
3293;SDS011;1659;51.470;6.770;2022-08-19T03:12:57;16.03;;;11.60;;
3293;SDS011;1659;51.470;6.770;2022-08-19T03:15:24;15.33;;;11.67;;
3293;SDS011;1659;51.470;6.770;2022-08-19T03:17:51;17.80;;;12.53;;
3293;SDS011;1659;51.470;6.770;2022-08-19T03:20:17;55.30;;;13.07;;
3293;SDS011;1659;51.470;6.770;2022-08-19T03:22:45;17.47;;;12.90;;
3293;SDS011;1659;51.470;6.770;2022-08-19T03:25:12;16.37;;;11.57;;
3293;SDS011;1659;51.470;6.770;2022-08-19T03:27:39;14.10;;;11.20;;
3293;SDS011;1659;51.470;6.770;2022-08-19T03:30:06;19.07;;;11.67;;
3293;SDS011;1659;51.470;6.770;2022-08-19T03:32:33;15.60;;;11.20;;
3293;SDS011;1659;51.470;6.770;2022-08-19T03:35:00;19.70;;;12.70;;
3293;SDS011;1659;51.470;6.770;2022-08-19T03:37:27;19.50;;;12.10;;
3293;SDS011;1659;51.470;6.770;2022-08-19T03:39:55;18.73;;;12.70;;
3293;SDS011;1659;51.470;6.770;2022-08-19T03:42:22;21.00;;;11.50;;
3293;SDS011;1659;51.470;6.770;2022-08-19T03:44:49;17.23;;;11.83;;
3293;SDS011;1659;51.470;6.770;2022-08-19T03:47:16;16.67;;;12.10;;
3293;SDS011;1659;51.470;6.770;2022-08-19T03:49:43;15.40;;;12.40;;
3293;SDS011;1659;51.470;6.770;2022-08-19T03:52:10;19.10;;;13.00;;
3293;SDS011;1659;51.470;6.770;2022-08-19T03:54:37;19.87;;;13.47;;
3293;SDS011;1659;51.470;6.770;2022-08-19T03:57:05;19.50;;;13.17;;
3293;SDS011;1659;51.470;6.770;2022-08-19T03:59:34;18.23;;;14.40;;
3293;SDS011;1659;51.470;6.770;2022-08-19T04:02:02;20.10;;;13.67;;
3293;SDS011;1659;51.470;6.770;2022-08-19T04:04:33;24.70;;;14.50;;
3293;SDS011;1659;51.470;6.770;2022-08-19T04:07:00;19.47;;;14.23;;
3293;SDS011;1659;51.470;6.770;2022-08-19T04:09:26;20.73;;;14.57;;
3293;SDS011;1659;51.470;6.770;2022-08-19T04:11:55;20.90;;;14.90;;
3293;SDS011;1659;51.470;6.770;2022-08-19T04:14:26;19.60;;;13.73;;
3293;SDS011;1659;51.470;6.770;2022-08-19T04:16:56;27.13;;;15.27;;
3293;SDS011;1659;51.470;6.770;2022-08-19T04:19:23;19.87;;;14.37;;
3293;SDS011;1659;51.470;6.770;2022-08-19T04:21:51;18.77;;;14.60;;
3293;SDS011;1659;51.470;6.770;2022-08-19T04:24:19;21.83;;;13.90;;
3293;SDS011;1659;51.470;6.770;2022-08-19T04:26:46;25.40;;;15.70;;
3293;SDS011;1659;51.470;6.770;2022-08-19T04:29:14;20.70;;;14.90;;
3293;SDS011;1659;51.470;6.770;2022-08-19T04:31:44;42.13;;;24.10;;
3293;SDS011;1659;51.470;6.770;2022-08-19T04:34:12;132.83;;;64.37;;
3293;SDS011;1659;51.470;6.770;2022-08-19T04:36:41;159.63;;;78.80;;
3293;SDS011;1659;51.470;6.770;2022-08-19T04:39:11;177.47;;;84.20;;
3293;SDS011;1659;51.470;6.770;2022-08-19T04:41:40;425.93;;;208.43;;
3293;SDS011;1659;51.470;6.770;2022-08-19T04:44:25;345.43;;;149.93;;
3293;SDS011;1659;51.470;6.770;2022-08-19T04:46:53;133.00;;;58.77;;
3293;SDS011;1659;51.470;6.770;2022-08-19T04:49:21;94.53;;;43.40;;
3293;SDS011;1659;51.470;6.770;2022-08-19T04:51:49;135.07;;;57.07;;
3293;SDS011;1659;51.470;6.770;2022-08-19T04:54:19;62.30;;;31.40;;
3293;SDS011;1659;51.470;6.770;2022-08-19T04:56:50;46.57;;;25.30;;
3293;SDS011;1659;51.470;6.770;2022-08-19T04:59:17;485.30;;;228.23;;
3293;SDS011;1659;51.470;6.770;2022-08-19T05:01:45;179.30;;;77.07;;
3293;SDS011;1659;51.470;6.770;2022-08-19T05:04:16;56.77;;;28.20;;
3293;SDS011;1659;51.470;6.770;2022-08-19T05:06:45;31.80;;;18.57;;
3293;SDS011;1659;51.470;6.770;2022-08-19T05:09:12;28.50;;;19.17;;
3293;SDS011;1659;51.470;6.770;2022-08-19T05:11:38;27.23;;;17.60;;
3293;SDS011;1659;51.470;6.770;2022-08-19T05:14:05;39.70;;;19.10;;
3293;SDS011;1659;51.470;6.770;2022-08-19T05:16:32;30.37;;;19.40;;
3293;SDS011;1659;51.470;6.770;2022-08-19T05:18:59;30.97;;;17.90;;
3293;SDS011;1659;51.470;6.770;2022-08-19T05:21:45;28.80;;;18.00;;
3293;SDS011;1659;51.470;6.770;2022-08-19T05:24:30;41.73;;;23.30;;
3293;SDS011;1659;51.470;6.770;2022-08-19T05:26:59;47.27;;;24.93;;
3293;SDS011;1659;51.470;6.770;2022-08-19T05:29:27;39.30;;;24.93;;
3293;SDS011;1659;51.470;6.770;2022-08-19T05:31:56;53.97;;;31.10;;
3293;SDS011;1659;51.470;6.770;2022-08-19T05:34:23;51.27;;;26.93;;
3293;SDS011;1659;51.470;6.770;2022-08-19T05:36:55;61.13;;;31.40;;
3293;SDS011;1659;51.470;6.770;2022-08-19T05:39:23;53.27;;;29.80;;
3293;SDS011;1659;51.470;6.770;2022-08-19T05:41:52;57.00;;;32.20;;
3293;SDS011;1659;51.470;6.770;2022-08-19T05:44:22;58.77;;;32.63;;
3293;SDS011;1659;51.470;6.770;2022-08-19T05:46:49;56.20;;;31.77;;
3293;SDS011;1659;51.470;6.770;2022-08-19T05:49:19;69.80;;;36.17;;
3293;SDS011;1659;51.470;6.770;2022-08-19T05:51:47;65.83;;;36.33;;
3293;SDS011;1659;51.470;6.770;2022-08-19T05:54:15;69.40;;;36.20;;
3293;SDS011;1659;51.470;6.770;2022-08-19T05:56:43;59.40;;;32.80;;
3293;SDS011;1659;51.470;6.770;2022-08-19T05:59:12;68.67;;;35.53;;
3293;SDS011;1659;51.470;6.770;2022-08-19T06:01:40;64.67;;;37.87;;
3293;SDS011;1659;51.470;6.770;2022-08-19T06:04:08;57.60;;;32.80;;
3293;SDS011;1659;51.470;6.770;2022-08-19T06:06:35;57.00;;;34.00;;
3293;SDS011;1659;51.470;6.770;2022-08-19T06:09:02;66.53;;;33.10;;
3293;SDS011;1659;51.470;6.770;2022-08-19T06:11:35;59.80;;;32.73;;
3293;SDS011;1659;51.470;6.770;2022-08-19T06:14:05;57.10;;;32.27;;
3293;SDS011;1659;51.470;6.770;2022-08-19T06:16:34;53.80;;;32.40;;
3293;SDS011;1659;51.470;6.770;2022-08-19T06:19:02;49.30;;;30.70;;
3293;SDS011;1659;51.470;6.770;2022-08-19T06:21:31;51.13;;;30.90;;
3293;SDS011;1659;51.470;6.770;2022-08-19T06:23:58;53.57;;;33.30;;
3293;SDS011;1659;51.470;6.770;2022-08-19T06:26:25;50.07;;;31.53;;
3293;SDS011;1659;51.470;6.770;2022-08-19T06:28:54;52.20;;;31.87;;
3293;SDS011;1659;51.470;6.770;2022-08-19T06:31:21;56.93;;;32.87;;
3293;SDS011;1659;51.470;6.770;2022-08-19T06:33:50;45.80;;;30.80;;
3293;SDS011;1659;51.470;6.770;2022-08-19T06:36:17;47.10;;;29.00;;
3293;SDS011;1659;51.470;6.770;2022-08-19T06:38:45;45.87;;;29.50;;
3293;SDS011;1659;51.470;6.770;2022-08-19T06:41:12;46.67;;;27.97;;
3293;SDS011;1659;51.470;6.770;2022-08-19T06:43:39;41.83;;;28.53;;
3293;SDS011;1659;51.470;6.770;2022-08-19T06:46:10;47.53;;;27.70;;
3293;SDS011;1659;51.470;6.770;2022-08-19T06:48:39;48.07;;;29.27;;
3293;SDS011;1659;51.470;6.770;2022-08-19T06:51:06;44.03;;;28.07;;
3293;SDS011;1659;51.470;6.770;2022-08-19T06:53:32;47.10;;;29.60;;
3293;SDS011;1659;51.470;6.770;2022-08-19T06:55:59;46.87;;;30.20;;
3293;SDS011;1659;51.470;6.770;2022-08-19T06:58:27;44.30;;;31.03;;
3293;SDS011;1659;51.470;6.770;2022-08-19T07:00:56;45.00;;;29.03;;
3293;SDS011;1659;51.470;6.770;2022-08-19T07:03:27;43.00;;;31.27;;
3293;SDS011;1659;51.470;6.770;2022-08-19T07:05:55;46.60;;;30.87;;
3293;SDS011;1659;51.470;6.770;2022-08-19T07:08:22;46.67;;;31.77;;
3293;SDS011;1659;51.470;6.770;2022-08-19T07:10:51;55.47;;;33.87;;
3293;SDS011;1659;51.470;6.770;2022-08-19T07:13:18;48.90;;;33.43;;
3293;SDS011;1659;51.470;6.770;2022-08-19T07:15:48;49.60;;;34.70;;
3293;SDS011;1659;51.470;6.770;2022-08-19T07:18:23;52.13;;;33.60;;
3293;SDS011;1659;51.470;6.770;2022-08-19T07:21:01;48.07;;;34.07;;
3293;SDS011;1659;51.470;6.770;2022-08-19T07:23:28;47.27;;;31.50;;
3293;SDS011;1659;51.470;6.770;2022-08-19T07:25:55;49.00;;;32.67;;
3293;SDS011;1659;51.470;6.770;2022-08-19T07:28:22;50.27;;;34.03;;
3293;SDS011;1659;51.470;6.770;2022-08-19T07:30:48;46.87;;;32.83;;
3293;SDS011;1659;51.470;6.770;2022-08-19T07:33:16;44.50;;;32.17;;
3293;SDS011;1659;51.470;6.770;2022-08-19T07:35:43;44.83;;;31.37;;
3293;SDS011;1659;51.470;6.770;2022-08-19T07:38:11;53.43;;;35.17;;
3293;SDS011;1659;51.470;6.770;2022-08-19T07:40:37;46.47;;;33.77;;
3293;SDS011;1659;51.470;6.770;2022-08-19T07:43:05;51.77;;;33.60;;
3293;SDS011;1659;51.470;6.770;2022-08-19T07:45:40;50.57;;;33.27;;
3293;SDS011;1659;51.470;6.770;2022-08-19T07:48:12;51.80;;;32.30;;
3293;SDS011;1659;51.470;6.770;2022-08-19T07:50:39;44.27;;;30.20;;
3293;SDS011;1659;51.470;6.770;2022-08-19T07:53:06;42.73;;;29.90;;
3293;SDS011;1659;51.470;6.770;2022-08-19T07:55:34;41.97;;;29.40;;
3293;SDS011;1659;51.470;6.770;2022-08-19T07:58:00;38.17;;;26.97;;
3293;SDS011;1659;51.470;6.770;2022-08-19T08:00:27;44.10;;;27.90;;
3293;SDS011;1659;51.470;6.770;2022-08-19T08:02:53;37.03;;;26.23;;
3293;SDS011;1659;51.470;6.770;2022-08-19T08:05:20;39.10;;;25.80;;
3293;SDS011;1659;51.470;6.770;2022-08-19T08:08:04;35.70;;;24.40;;
3293;SDS011;1659;51.470;6.770;2022-08-19T08:10:49;38.33;;;26.87;;
3293;SDS011;1659;51.470;6.770;2022-08-19T08:13:16;35.77;;;25.37;;
3293;SDS011;1659;51.470;6.770;2022-08-19T08:15:43;36.30;;;25.10;;
3293;SDS011;1659;51.470;6.770;2022-08-19T08:18:10;32.97;;;24.63;;
3293;SDS011;1659;51.470;6.770;2022-08-19T08:20:37;32.50;;;22.60;;
3293;SDS011;1659;51.470;6.770;2022-08-19T08:23:04;31.33;;;21.10;;
3293;SDS011;1659;51.470;6.770;2022-08-19T08:25:51;29.27;;;20.83;;
3293;SDS011;1659;51.470;6.770;2022-08-19T08:28:19;28.30;;;20.00;;
3293;SDS011;1659;51.470;6.770;2022-08-19T08:30:46;27.47;;;18.23;;
3293;SDS011;1659;51.470;6.770;2022-08-19T08:33:14;26.10;;;18.77;;
3293;SDS011;1659;51.470;6.770;2022-08-19T08:35:44;24.90;;;18.00;;
3293;SDS011;1659;51.470;6.770;2022-08-19T08:38:11;27.40;;;17.77;;
3293;SDS011;1659;51.470;6.770;2022-08-19T08:40:42;25.60;;;18.30;;
3293;SDS011;1659;51.470;6.770;2022-08-19T08:43:13;22.97;;;17.93;;
3293;SDS011;1659;51.470;6.770;2022-08-19T08:45:51;25.73;;;17.47;;
3293;SDS011;1659;51.470;6.770;2022-08-19T08:48:24;27.27;;;18.80;;
3293;SDS011;1659;51.470;6.770;2022-08-19T08:51:00;25.60;;;18.00;;
3293;SDS011;1659;51.470;6.770;2022-08-19T08:53:31;28.43;;;18.60;;
3293;SDS011;1659;51.470;6.770;2022-08-19T08:55:58;25.00;;;17.00;;
3293;SDS011;1659;51.470;6.770;2022-08-19T08:58:29;24.47;;;15.80;;
3293;SDS011;1659;51.470;6.770;2022-08-19T09:01:08;22.93;;;16.43;;
3293;SDS011;1659;51.470;6.770;2022-08-19T09:03:36;20.67;;;15.10;;
3293;SDS011;1659;51.470;6.770;2022-08-19T09:06:06;23.37;;;15.90;;
3293;SDS011;1659;51.470;6.770;2022-08-19T09:08:39;26.83;;;16.70;;
3293;SDS011;1659;51.470;6.770;2022-08-19T09:11:14;21.57;;;14.90;;
3293;SDS011;1659;51.470;6.770;2022-08-19T09:13:56;25.83;;;16.63;;
3293;SDS011;1659;51.470;6.770;2022-08-19T09:16:31;30.53;;;18.43;;
3293;SDS011;1659;51.470;6.770;2022-08-19T09:19:01;26.43;;;19.20;;
3293;SDS011;1659;51.470;6.770;2022-08-19T09:21:30;25.63;;;17.87;;
3293;SDS011;1659;51.470;6.770;2022-08-19T09:23:57;27.90;;;18.40;;
3293;SDS011;1659;51.470;6.770;2022-08-19T09:26:24;31.20;;;21.50;;
3293;SDS011;1659;51.470;6.770;2022-08-19T09:28:51;31.53;;;21.17;;
3293;SDS011;1659;51.470;6.770;2022-08-19T09:31:21;32.20;;;20.70;;
3293;SDS011;1659;51.470;6.770;2022-08-19T09:33:50;31.70;;;22.50;;
3293;SDS011;1659;51.470;6.770;2022-08-19T09:36:21;35.20;;;22.43;;
3293;SDS011;1659;51.470;6.770;2022-08-19T09:38:49;35.03;;;22.70;;
3293;SDS011;1659;51.470;6.770;2022-08-19T09:41:18;35.63;;;24.20;;
3293;SDS011;1659;51.470;6.770;2022-08-19T09:43:46;34.70;;;22.70;;
3293;SDS011;1659;51.470;6.770;2022-08-19T09:46:18;33.63;;;20.70;;
3293;SDS011;1659;51.470;6.770;2022-08-19T09:48:46;37.00;;;22.80;;
3293;SDS011;1659;51.470;6.770;2022-08-19T09:51:14;31.77;;;19.90;;
3293;SDS011;1659;51.470;6.770;2022-08-19T09:53:43;33.13;;;22.57;;
3293;SDS011;1659;51.470;6.770;2022-08-19T09:56:11;32.40;;;23.00;;
3293;SDS011;1659;51.470;6.770;2022-08-19T09:58:38;27.93;;;20.33;;
3293;SDS011;1659;51.470;6.770;2022-08-19T10:01:06;32.80;;;22.00;;
3293;SDS011;1659;51.470;6.770;2022-08-19T10:03:35;29.90;;;21.33;;
3293;SDS011;1659;51.470;6.770;2022-08-19T10:06:03;27.80;;;19.43;;
3293;SDS011;1659;51.470;6.770;2022-08-19T10:08:33;34.93;;;20.90;;
3293;SDS011;1659;51.470;6.770;2022-08-19T10:11:02;33.37;;;22.03;;
3293;SDS011;1659;51.470;6.770;2022-08-19T10:13:30;34.87;;;21.63;;
3293;SDS011;1659;51.470;6.770;2022-08-19T10:16:02;28.47;;;20.37;;
3293;SDS011;1659;51.470;6.770;2022-08-19T10:18:31;31.77;;;21.33;;
3293;SDS011;1659;51.470;6.770;2022-08-19T10:21:03;29.20;;;19.90;;
3293;SDS011;1659;51.470;6.770;2022-08-19T10:23:34;28.53;;;19.73;;
3293;SDS011;1659;51.470;6.770;2022-08-19T10:26:01;31.70;;;19.50;;
3293;SDS011;1659;51.470;6.770;2022-08-19T10:28:31;30.00;;;22.63;;
3293;SDS011;1659;51.470;6.770;2022-08-19T10:30:58;29.10;;;21.10;;
3293;SDS011;1659;51.470;6.770;2022-08-19T10:33:25;26.47;;;20.20;;
3293;SDS011;1659;51.470;6.770;2022-08-19T10:35:58;29.43;;;20.50;;
3293;SDS011;1659;51.470;6.770;2022-08-19T10:38:26;28.83;;;20.33;;
3293;SDS011;1659;51.470;6.770;2022-08-19T10:40:54;23.50;;;18.30;;
3293;SDS011;1659;51.470;6.770;2022-08-19T10:43:21;25.90;;;18.87;;
3293;SDS011;1659;51.470;6.770;2022-08-19T10:45:48;33.37;;;21.07;;
3293;SDS011;1659;51.470;6.770;2022-08-19T10:48:18;25.83;;;17.40;;
3293;SDS011;1659;51.470;6.770;2022-08-19T10:50:45;24.60;;;18.40;;
3293;SDS011;1659;51.470;6.770;2022-08-19T10:53:31;24.87;;;18.03;;
3293;SDS011;1659;51.470;6.770;2022-08-19T10:55:57;18.57;;;15.23;;
3293;SDS011;1659;51.470;6.770;2022-08-19T10:58:41;22.60;;;15.40;;
3293;SDS011;1659;51.470;6.770;2022-08-19T11:01:08;17.67;;;14.07;;
3293;SDS011;1659;51.470;6.770;2022-08-19T11:03:34;22.07;;;15.60;;
3293;SDS011;1659;51.470;6.770;2022-08-19T11:06:02;17.87;;;13.77;;
3293;SDS011;1659;51.470;6.770;2022-08-19T11:08:32;19.10;;;13.87;;
3293;SDS011;1659;51.470;6.770;2022-08-19T11:11:00;17.27;;;14.30;;
3293;SDS011;1659;51.470;6.770;2022-08-19T11:13:28;17.67;;;12.47;;
3293;SDS011;1659;51.470;6.770;2022-08-19T11:15:56;14.23;;;11.07;;
3293;SDS011;1659;51.470;6.770;2022-08-19T11:18:24;17.07;;;11.57;;
3293;SDS011;1659;51.470;6.770;2022-08-19T11:20:51;15.20;;;11.87;;
3293;SDS011;1659;51.470;6.770;2022-08-19T11:23:18;15.23;;;11.77;;
3293;SDS011;1659;51.470;6.770;2022-08-19T11:25:46;17.30;;;12.80;;
3293;SDS011;1659;51.470;6.770;2022-08-19T11:28:13;22.87;;;12.60;;
3293;SDS011;1659;51.470;6.770;2022-08-19T11:30:39;14.97;;;12.00;;
3293;SDS011;1659;51.470;6.770;2022-08-19T11:33:06;12.90;;;11.27;;
3293;SDS011;1659;51.470;6.770;2022-08-19T11:35:38;11.07;;;9.87;;
3293;SDS011;1659;51.470;6.770;2022-08-19T11:38:06;14.60;;;10.50;;
3293;SDS011;1659;51.470;6.770;2022-08-19T11:40:32;12.50;;;11.20;;
3293;SDS011;1659;51.470;6.770;2022-08-19T11:43:00;12.20;;;10.83;;
3293;SDS011;1659;51.470;6.770;2022-08-19T11:45:27;13.37;;;10.30;;
3293;SDS011;1659;51.470;6.770;2022-08-19T11:47:57;17.90;;;11.50;;
3293;SDS011;1659;51.470;6.770;2022-08-19T11:50:23;11.53;;;9.70;;
3293;SDS011;1659;51.470;6.770;2022-08-19T11:52:52;14.43;;;10.53;;
3293;SDS011;1659;51.470;6.770;2022-08-19T11:55:20;13.73;;;9.90;;
3293;SDS011;1659;51.470;6.770;2022-08-19T11:57:47;18.30;;;11.20;;
3293;SDS011;1659;51.470;6.770;2022-08-19T12:00:15;19.13;;;10.27;;
3293;SDS011;1659;51.470;6.770;2022-08-19T12:02:42;14.33;;;10.53;;
3293;SDS011;1659;51.470;6.770;2022-08-19T12:05:08;10.27;;;9.27;;
3293;SDS011;1659;51.470;6.770;2022-08-19T12:07:35;9.77;;;8.20;;
3293;SDS011;1659;51.470;6.770;2022-08-19T12:10:02;9.83;;;8.60;;
3293;SDS011;1659;51.470;6.770;2022-08-19T12:12:29;12.93;;;10.77;;
3293;SDS011;1659;51.470;6.770;2022-08-19T12:14:56;12.83;;;10.03;;
3293;SDS011;1659;51.470;6.770;2022-08-19T12:17:24;13.33;;;10.27;;
3293;SDS011;1659;51.470;6.770;2022-08-19T12:19:52;12.17;;;9.30;;
3293;SDS011;1659;51.470;6.770;2022-08-19T12:22:19;10.90;;;9.80;;
3293;SDS011;1659;51.470;6.770;2022-08-19T12:24:46;11.40;;;9.80;;
3293;SDS011;1659;51.470;6.770;2022-08-19T12:27:13;11.33;;;8.70;;
3293;SDS011;1659;51.470;6.770;2022-08-19T12:29:40;10.10;;;8.70;;
3293;SDS011;1659;51.470;6.770;2022-08-19T12:32:06;9.07;;;6.80;;
3293;SDS011;1659;51.470;6.770;2022-08-19T12:34:35;9.40;;;7.27;;
3293;SDS011;1659;51.470;6.770;2022-08-19T12:37:03;9.50;;;8.27;;
3293;SDS011;1659;51.470;6.770;2022-08-19T12:39:33;10.30;;;8.53;;
3293;SDS011;1659;51.470;6.770;2022-08-19T12:42:00;8.47;;;7.53;;
3293;SDS011;1659;51.470;6.770;2022-08-19T12:44:27;10.07;;;7.50;;
3293;SDS011;1659;51.470;6.770;2022-08-19T12:46:55;8.83;;;7.70;;
3293;SDS011;1659;51.470;6.770;2022-08-19T12:49:22;8.17;;;6.73;;
3293;SDS011;1659;51.470;6.770;2022-08-19T12:51:51;17.10;;;8.53;;
3293;SDS011;1659;51.470;6.770;2022-08-19T12:54:17;8.20;;;7.47;;
3293;SDS011;1659;51.470;6.770;2022-08-19T12:56:45;11.87;;;7.13;;
3293;SDS011;1659;51.470;6.770;2022-08-19T12:59:11;7.37;;;6.67;;
3293;SDS011;1659;51.470;6.770;2022-08-19T13:01:39;11.57;;;7.67;;
3293;SDS011;1659;51.470;6.770;2022-08-19T13:04:06;8.07;;;7.10;;
3293;SDS011;1659;51.470;6.770;2022-08-19T13:06:33;7.00;;;6.00;;
3293;SDS011;1659;51.470;6.770;2022-08-19T13:09:01;7.50;;;6.70;;
3293;SDS011;1659;51.470;6.770;2022-08-19T13:11:28;7.37;;;6.33;;
3293;SDS011;1659;51.470;6.770;2022-08-19T13:13:57;6.83;;;6.20;;
3293;SDS011;1659;51.470;6.770;2022-08-19T13:16:24;7.50;;;6.00;;
3293;SDS011;1659;51.470;6.770;2022-08-19T13:18:53;8.00;;;6.17;;
3293;SDS011;1659;51.470;6.770;2022-08-19T13:21:21;7.03;;;6.33;;
3293;SDS011;1659;51.470;6.770;2022-08-19T13:23:49;7.33;;;6.63;;
3293;SDS011;1659;51.470;6.770;2022-08-19T13:26:18;6.80;;;6.20;;
3293;SDS011;1659;51.470;6.770;2022-08-19T13:28:45;10.57;;;7.07;;
3293;SDS011;1659;51.470;6.770;2022-08-19T13:31:44;7.70;;;6.93;;
3293;SDS011;1659;51.470;6.770;2022-08-19T13:34:29;8.13;;;7.33;;
3293;SDS011;1659;51.470;6.770;2022-08-19T13:36:57;8.40;;;7.60;;
3293;SDS011;1659;51.470;6.770;2022-08-19T13:39:25;7.00;;;6.30;;
3293;SDS011;1659;51.470;6.770;2022-08-19T13:41:53;11.07;;;9.80;;
3293;SDS011;1659;51.470;6.770;2022-08-19T13:44:20;9.67;;;6.40;;
3293;SDS011;1659;51.470;6.770;2022-08-19T13:46:47;9.77;;;7.60;;
3293;SDS011;1659;51.470;6.770;2022-08-19T13:49:15;8.63;;;7.50;;
3293;SDS011;1659;51.470;6.770;2022-08-19T13:51:42;7.97;;;6.67;;
3293;SDS011;1659;51.470;6.770;2022-08-19T13:54:10;8.80;;;7.90;;
3293;SDS011;1659;51.470;6.770;2022-08-19T13:56:40;11.63;;;8.40;;
3293;SDS011;1659;51.470;6.770;2022-08-19T13:59:09;12.30;;;8.17;;
3293;SDS011;1659;51.470;6.770;2022-08-19T14:01:35;10.20;;;8.80;;
3293;SDS011;1659;51.470;6.770;2022-08-19T14:04:02;8.27;;;7.57;;
3293;SDS011;1659;51.470;6.770;2022-08-19T14:06:30;7.70;;;7.00;;
3293;SDS011;1659;51.470;6.770;2022-08-19T14:08:57;10.40;;;9.33;;
3293;SDS011;1659;51.470;6.770;2022-08-19T14:11:24;12.00;;;10.80;;
3293;SDS011;1659;51.470;6.770;2022-08-19T14:13:51;13.57;;;10.40;;
3293;SDS011;1659;51.470;6.770;2022-08-19T14:16:19;10.20;;;9.03;;
3293;SDS011;1659;51.470;6.770;2022-08-19T14:18:46;10.60;;;9.53;;
3293;SDS011;1659;51.470;6.770;2022-08-19T14:21:14;11.27;;;9.93;;
3293;SDS011;1659;51.470;6.770;2022-08-19T14:23:43;10.00;;;8.97;;
3293;SDS011;1659;51.470;6.770;2022-08-19T14:26:11;11.60;;;9.07;;
3293;SDS011;1659;51.470;6.770;2022-08-19T14:28:39;8.33;;;7.60;;
3293;SDS011;1659;51.470;6.770;2022-08-19T14:31:06;9.00;;;8.10;;
3293;SDS011;1659;51.470;6.770;2022-08-19T14:33:35;7.47;;;6.10;;
3293;SDS011;1659;51.470;6.770;2022-08-19T14:36:01;10.53;;;6.53;;
3293;SDS011;1659;51.470;6.770;2022-08-19T14:38:28;10.40;;;7.77;;
3293;SDS011;1659;51.470;6.770;2022-08-19T14:40:56;8.70;;;7.10;;
3293;SDS011;1659;51.470;6.770;2022-08-19T14:43:32;7.93;;;7.13;;
3293;SDS011;1659;51.470;6.770;2022-08-19T14:45:59;10.70;;;6.70;;
3293;SDS011;1659;51.470;6.770;2022-08-19T14:48:25;6.70;;;6.10;;
3293;SDS011;1659;51.470;6.770;2022-08-19T14:50:53;7.47;;;6.53;;
3293;SDS011;1659;51.470;6.770;2022-08-19T14:53:20;6.80;;;6.10;;
3293;SDS011;1659;51.470;6.770;2022-08-19T14:55:47;12.80;;;6.53;;
3293;SDS011;1659;51.470;6.770;2022-08-19T14:58:13;6.10;;;5.60;;
3293;SDS011;1659;51.470;6.770;2022-08-19T15:00:40;9.60;;;6.40;;